createdAt,value
2018-09-17T00:01:49.116Z,25.50
2018-09-17T00:04:22.209Z,25.70
2018-09-17T00:06:55.300Z,25.60
2018-09-17T00:09:28.368Z,25.20
2018-09-17T00:12:01.653Z,25.10
2018-09-17T00:14:34.478Z,25.00
2018-09-17T00:17:07.783Z,24.80
2018-09-17T00:19:40.630Z,24.70
2018-09-17T00:22:14.116Z,24.60
2018-09-17T00:24:46.818Z,24.70
2018-09-17T00:27:19.841Z,25.00
2018-09-17T00:29:52.559Z,25.10
2018-09-17T00:32:25.911Z,24.80
2018-09-17T00:34:59.089Z,24.50
2018-09-17T00:37:32.041Z,24.70
2018-09-17T00:40:04.781Z,24.90
2018-09-17T00:42:37.688Z,25.00
2018-09-17T00:45:10.419Z,25.10
2018-09-17T00:47:43.397Z,25.30
2018-09-17T00:50:16.367Z,25.00
2018-09-17T00:52:49.592Z,25.20
2018-09-17T00:55:22.529Z,24.90
2018-09-17T00:57:55.626Z,24.90
2018-09-17T01:00:28.688Z,24.90
2018-09-17T01:03:01.576Z,24.80
2018-09-17T01:05:34.449Z,24.80
2018-09-17T01:08:07.299Z,24.70
2018-09-17T01:10:40.255Z,24.90
2018-09-17T01:13:13.569Z,24.80
2018-09-17T01:15:46.459Z,24.80
2018-09-17T01:18:19.300Z,24.50
2018-09-17T01:20:52.223Z,24.70
2018-09-17T01:23:24.977Z,24.50
2018-09-17T01:25:58.039Z,24.60
2018-09-17T01:28:31.006Z,24.60
2018-09-17T01:31:03.958Z,24.70
2018-09-17T01:33:36.758Z,24.60
2018-09-17T01:36:09.739Z,24.50
2018-09-17T01:38:43.174Z,24.40
2018-09-17T01:41:16.326Z,24.70
2018-09-17T01:43:49.809Z,24.70
2018-09-17T01:46:23.236Z,24.40
2018-09-17T01:48:56.367Z,23.90
2018-09-17T01:51:29.304Z,24.10
2018-09-17T01:54:02.642Z,24.20
2018-09-17T01:56:35.648Z,24.30
2018-09-17T01:59:08.609Z,24.40
2018-09-17T02:01:41.630Z,24.30
2018-09-17T02:04:14.530Z,24.10
2018-09-17T02:06:47.489Z,23.90
2018-09-17T02:09:20.325Z,23.90
2018-09-17T02:11:53.589Z,24.10
2018-09-17T02:14:26.513Z,24.20
2018-09-17T02:16:59.575Z,24.10
2018-09-17T02:19:32.666Z,24.10
2018-09-17T02:22:05.527Z,24.00
2018-09-17T02:24:38.622Z,24.10
2018-09-17T02:27:11.844Z,24.10
2018-09-17T02:29:44.588Z,24.00
2018-09-17T02:32:17.395Z,23.60
2018-09-17T02:34:50.552Z,23.80
2018-09-17T02:37:23.447Z,24.10
2018-09-17T02:39:56.445Z,24.30
2018-09-17T02:42:29.452Z,24.30
2018-09-17T02:45:02.197Z,24.00
2018-09-17T02:47:35.255Z,24.20
2018-09-17T02:50:09.007Z,24.20
2018-09-17T02:52:41.972Z,24.30
2018-09-17T02:55:15.692Z,24.40
2018-09-17T02:57:49.233Z,24.60
2018-09-17T03:00:22.712Z,24.60
2018-09-17T03:02:56.206Z,24.70
2018-09-17T03:05:30.050Z,24.80
2018-09-17T03:08:03.054Z,24.80
2018-09-17T03:10:36.259Z,24.80
2018-09-17T03:13:09.436Z,24.90
2018-09-17T03:15:52.427Z,24.70
2018-09-17T03:18:36.495Z,24.70
2018-09-17T03:21:09.886Z,24.70
2018-09-17T03:23:43.070Z,24.60
2018-09-17T03:26:16.020Z,24.70
2018-09-17T03:28:49.122Z,24.80
2018-09-17T03:31:22.165Z,24.70
2018-09-17T03:33:55.416Z,24.60
2018-09-17T03:36:28.300Z,24.70
2018-09-17T03:39:01.087Z,24.70
2018-09-17T03:41:33.820Z,24.70
2018-09-17T03:44:07.439Z,24.40
2018-09-17T03:46:40.385Z,24.60
2018-09-17T03:49:13.359Z,24.50
2018-09-17T03:51:46.222Z,24.50
2018-09-17T03:54:19.287Z,24.50
2018-09-17T03:56:52.716Z,24.50
2018-09-17T03:59:26.248Z,24.50
2018-09-17T04:01:58.977Z,24.60
2018-09-17T04:04:32.448Z,24.70
2018-09-17T04:07:05.281Z,24.60
2018-09-17T04:09:39.019Z,24.30
2018-09-17T04:12:11.756Z,24.40
2018-09-17T04:14:44.584Z,24.50
2018-09-17T04:17:17.441Z,24.50
2018-09-17T04:19:50.404Z,24.40
2018-09-17T04:22:23.207Z,24.50
2018-09-17T04:24:56.486Z,24.40
2018-09-17T04:27:29.231Z,24.50
2018-09-17T04:30:02.041Z,24.60
2018-09-17T04:32:35.574Z,24.60
2018-09-17T04:35:09.936Z,24.60
2018-09-17T04:37:43.365Z,24.60
2018-09-17T04:40:16.524Z,24.60
2018-09-17T04:42:49.254Z,24.50
2018-09-17T04:45:22.149Z,24.50
2018-09-17T04:47:55.004Z,24.40
2018-09-17T04:50:28.124Z,24.30
2018-09-17T04:53:01.190Z,24.20
2018-09-17T04:55:33.905Z,24.20
2018-09-17T04:58:07.923Z,24.20
2018-09-17T05:00:40.770Z,24.10
2018-09-17T05:03:14.349Z,23.90
2018-09-17T05:05:47.137Z,24.00
2018-09-17T05:08:20.019Z,23.70
2018-09-17T05:10:52.860Z,23.80
2018-09-17T05:13:26.075Z,23.80
2018-09-17T05:15:58.890Z,23.80
2018-09-17T05:18:31.879Z,23.80
2018-09-17T05:21:04.660Z,23.70
2018-09-17T05:23:37.639Z,23.60
2018-09-17T05:26:10.483Z,23.70
2018-09-17T05:28:43.377Z,23.80
2018-09-17T05:31:16.685Z,23.60
2018-09-17T05:33:49.506Z,23.60
2018-09-17T05:36:22.700Z,23.70
2018-09-17T05:38:56.039Z,23.50
2018-09-17T05:41:29.668Z,23.30
2018-09-17T05:44:03.205Z,23.00
2018-09-17T05:46:36.055Z,23.10
2018-09-17T05:49:10.156Z,22.90
2018-09-17T05:51:43.335Z,23.20
2018-09-17T05:54:16.248Z,23.20
2018-09-17T05:56:49.385Z,23.30
2018-09-17T05:59:23.046Z,23.30
2018-09-17T06:01:55.998Z,23.40
2018-09-17T06:04:28.808Z,23.40
2018-09-17T06:07:01.671Z,23.40
2018-09-17T06:09:34.631Z,23.30
2018-09-17T06:12:07.684Z,23.20
2018-09-17T06:14:40.674Z,23.10
2018-09-17T06:17:13.837Z,23.10
2018-09-17T06:19:47.126Z,23.20
2018-09-17T06:22:19.964Z,23.40
2018-09-17T06:24:52.682Z,23.40
2018-09-17T06:27:25.975Z,23.50
2018-09-17T06:29:59.372Z,23.60
2018-09-17T06:32:32.486Z,23.50
2018-09-17T06:35:05.660Z,23.50
2018-09-17T06:37:38.477Z,23.70
2018-09-17T06:40:11.636Z,23.70
2018-09-17T06:42:44.500Z,23.70
2018-09-17T06:45:17.667Z,23.60
2018-09-17T06:47:50.648Z,23.70
2018-09-17T06:50:24.048Z,23.70
2018-09-17T06:52:57.175Z,23.70
2018-09-17T06:55:30.146Z,23.60
2018-09-17T06:58:03.115Z,23.70
2018-09-17T07:00:36.156Z,23.70
2018-09-17T07:03:08.869Z,23.70
2018-09-17T07:05:42.037Z,23.60
2018-09-17T07:08:14.758Z,23.60
2018-09-17T07:10:47.851Z,23.60
2018-09-17T07:13:21.123Z,23.50
2018-09-17T07:15:54.083Z,23.30
2018-09-17T07:18:26.813Z,23.40
2018-09-17T07:20:59.773Z,23.50
2018-09-17T07:23:32.780Z,23.50
2018-09-17T07:26:06.063Z,23.50
2018-09-17T07:28:39.212Z,23.30
2018-09-17T07:31:12.011Z,23.30
2018-09-17T07:33:45.297Z,23.30
2018-09-17T07:36:18.805Z,23.30
2018-09-17T07:38:52.273Z,23.30
2018-09-17T07:41:25.002Z,23.30
2018-09-17T07:43:57.821Z,23.30
2018-09-17T07:46:31.034Z,23.10
2018-09-17T07:49:03.831Z,23.00
2018-09-17T07:51:36.647Z,22.90
2018-09-17T07:54:09.605Z,22.90
2018-09-17T07:56:42.763Z,23.10
2018-09-17T07:59:16.032Z,23.30
2018-09-17T08:01:48.963Z,23.40
2018-09-17T08:04:21.914Z,23.30
2018-09-17T08:06:54.998Z,23.30
2018-09-17T08:09:27.795Z,23.30
2018-09-17T08:12:01.337Z,23.30
2018-09-17T08:14:34.588Z,23.30
2018-09-17T08:17:08.117Z,23.20
2018-09-17T08:19:41.478Z,23.20
2018-09-17T08:22:15.047Z,23.40
2018-09-17T08:24:48.072Z,23.40
2018-09-17T08:27:21.034Z,23.30
2018-09-17T08:29:54.056Z,23.40
2018-09-17T08:32:27.017Z,23.40
2018-09-17T08:34:59.877Z,23.30
2018-09-17T08:37:32.680Z,23.30
2018-09-17T08:40:05.837Z,23.20
2018-09-17T08:42:38.713Z,23.10
2018-09-17T08:45:12.285Z,23.30
2018-09-17T08:47:45.667Z,23.30
2018-09-17T08:50:18.486Z,23.30
2018-09-17T08:52:51.810Z,23.30
2018-09-17T08:55:29.080Z,23.20
2018-09-17T08:58:06.432Z,23.20
2018-09-17T09:00:43.584Z,23.20
2018-09-17T09:03:20.032Z,23.20
2018-09-17T09:05:57.212Z,23.00
2018-09-17T09:08:30.463Z,22.90
2018-09-17T09:11:07.501Z,22.70
2018-09-17T09:13:44.619Z,22.50
2018-09-17T09:16:18.140Z,22.70
2018-09-17T09:18:50.993Z,22.70
2018-09-17T09:21:23.889Z,22.80
2018-09-17T09:23:57.022Z,22.80
2018-09-17T09:26:30.112Z,22.90
2018-09-17T09:29:03.323Z,23.00
2018-09-17T09:31:36.283Z,23.00
2018-09-17T09:34:09.146Z,22.80
2018-09-17T09:36:42.533Z,22.70
2018-09-17T09:39:15.809Z,22.70
2018-09-17T09:41:48.623Z,22.70
2018-09-17T09:44:21.624Z,22.80
2018-09-17T09:46:54.449Z,23.00
2018-09-17T09:49:27.187Z,22.90
2018-09-17T09:52:00.187Z,22.90
2018-09-17T09:54:33.154Z,23.00
2018-09-17T09:57:06.328Z,22.90
2018-09-17T09:59:39.322Z,22.80
2018-09-17T10:02:16.335Z,22.90
2018-09-17T10:04:49.252Z,22.90
2018-09-17T10:07:22.440Z,22.70
2018-09-17T10:09:59.346Z,22.70
2018-09-17T10:12:36.453Z,22.70
2018-09-17T10:15:13.627Z,22.70
2018-09-17T10:17:50.823Z,22.70
2018-09-17T10:20:23.589Z,22.60
2018-09-17T10:22:56.445Z,22.60
2018-09-17T10:25:29.639Z,22.60
2018-09-17T10:28:02.432Z,22.60
2018-09-17T10:30:35.380Z,22.70
2018-09-17T10:33:08.316Z,22.70
2018-09-17T10:35:41.178Z,22.60
2018-09-17T10:38:14.326Z,22.50
2018-09-17T10:40:47.053Z,22.40
2018-09-17T10:43:19.883Z,22.40
2018-09-17T10:45:52.874Z,22.40
2018-09-17T10:48:26.092Z,22.40
2018-09-17T10:50:59.263Z,22.30
2018-09-17T10:53:32.245Z,22.20
2018-09-17T10:56:05.206Z,22.20
2018-09-17T10:58:38.187Z,22.20
2018-09-17T11:01:10.928Z,22.20
2018-09-17T11:03:44.316Z,22.20
2018-09-17T11:06:17.748Z,22.30
2018-09-17T11:08:50.584Z,22.30
2018-09-17T11:11:23.456Z,22.40
2018-09-17T11:13:56.466Z,22.30
2018-09-17T11:16:29.170Z,22.20
2018-09-17T11:19:02.121Z,22.20
2018-09-17T11:21:34.992Z,22.20
2018-09-17T11:24:07.952Z,22.20
2018-09-17T11:26:40.981Z,22.20
2018-09-17T11:29:14.422Z,22.20
2018-09-17T11:31:47.129Z,22.00
2018-09-17T11:34:20.064Z,22.00
2018-09-17T11:36:53.664Z,22.00
2018-09-17T11:39:27.338Z,21.90
2018-09-17T11:42:00.336Z,21.90
2018-09-17T11:44:33.157Z,21.90
2018-09-17T11:47:06.087Z,22.00
2018-09-17T11:49:39.051Z,21.90
2018-09-17T11:52:11.938Z,21.70
2018-09-17T11:54:44.814Z,21.50
2018-09-17T11:57:17.769Z,21.60
2018-09-17T11:59:51.139Z,21.60
2018-09-17T12:02:28.376Z,21.50
2018-09-17T12:05:04.800Z,21.50
2018-09-17T12:07:43.333Z,21.50
2018-09-17T12:10:16.220Z,21.50
2018-09-17T12:12:49.599Z,21.40
2018-09-17T12:15:22.561Z,21.50
2018-09-17T12:17:55.649Z,21.30
2018-09-17T12:20:28.365Z,21.30
2018-09-17T12:23:01.275Z,21.30
2018-09-17T12:25:34.522Z,21.20
2018-09-17T12:28:07.592Z,21.20
2018-09-17T12:30:40.761Z,21.30
2018-09-17T12:33:13.659Z,21.40
2018-09-17T12:35:46.621Z,21.40
2018-09-17T12:38:19.493Z,21.40
2018-09-17T12:40:52.703Z,21.20
2018-09-17T12:43:25.688Z,21.30
2018-09-17T12:45:59.551Z,21.40
2018-09-17T12:48:33.117Z,21.50
2018-09-17T12:51:07.109Z,21.50
2018-09-17T12:53:40.389Z,21.50
2018-09-17T12:56:13.748Z,21.50
2018-09-17T12:58:47.202Z,21.70
2018-09-17T13:01:20.332Z,21.70
2018-09-17T13:03:53.297Z,21.60
2018-09-17T13:06:26.238Z,21.70
2018-09-17T13:08:59.460Z,21.70
2018-09-17T13:11:32.429Z,21.70
2018-09-17T13:14:05.275Z,21.60
2018-09-17T13:16:40.564Z,21.60
2018-09-17T13:19:14.483Z,21.50
2018-09-17T13:21:48.431Z,21.60
2018-09-17T13:24:21.593Z,21.80
2018-09-17T13:26:54.673Z,21.80
2018-09-17T13:29:28.369Z,21.70
2018-09-17T13:32:01.668Z,21.60
2018-09-17T13:34:34.960Z,21.40
2018-09-17T13:37:09.757Z,21.30
2018-09-17T13:39:43.016Z,21.40
2018-09-17T13:42:16.466Z,21.40
2018-09-17T13:44:51.087Z,21.40
2018-09-17T13:47:23.951Z,21.30
2018-09-17T13:49:57.198Z,21.20
2018-09-17T13:52:30.231Z,21.20
2018-09-17T13:55:03.064Z,21.30
2018-09-17T13:57:36.287Z,21.40
2018-09-17T14:00:09.560Z,21.40
2018-09-17T14:02:42.862Z,21.50
2018-09-17T14:05:15.761Z,21.90
2018-09-17T14:07:48.699Z,22.60
2018-09-17T14:10:21.828Z,23.40
2018-09-17T14:12:54.896Z,23.90
2018-09-17T14:15:28.268Z,24.70
2018-09-17T14:18:03.358Z,24.40
2018-09-17T14:20:36.452Z,25.40
2018-09-17T14:23:09.590Z,26.10
2018-09-17T14:25:44.114Z,26.50
2018-09-17T14:28:17.650Z,26.50
2018-09-17T14:30:51.060Z,26.90
2018-09-17T14:33:28.358Z,26.70
2018-09-17T14:36:02.570Z,27.20
2018-09-17T14:38:35.440Z,27.20
2018-09-17T14:41:08.898Z,27.40
2018-09-17T14:43:42.802Z,27.10
2018-09-17T14:46:17.377Z,27.10
2018-09-17T14:48:50.226Z,27.50
2018-09-17T14:51:23.724Z,27.30
2018-09-17T14:53:58.170Z,28.00
2018-09-17T14:56:31.056Z,28.50
2018-09-17T14:59:04.652Z,28.50
2018-09-17T15:01:38.033Z,28.20
2018-09-17T15:04:11.258Z,27.70
2018-09-17T15:06:44.628Z,27.50
2018-09-17T15:09:20.649Z,27.50
2018-09-17T15:11:54.918Z,27.60
2018-09-17T15:14:28.384Z,28.10
2018-09-17T15:17:02.373Z,28.00
2018-09-17T15:19:36.481Z,28.30
2018-09-17T15:22:11.140Z,29.00
2018-09-17T15:40:11.469Z,29.20
2018-09-17T15:42:45.006Z,29.30
2018-09-17T15:45:19.345Z,29.70
2018-09-17T15:47:53.283Z,29.60
2018-09-17T15:50:26.823Z,29.50
2018-09-17T15:53:00.972Z,29.40
2018-09-17T15:55:35.170Z,30.10
2018-09-17T15:58:08.239Z,29.90
2018-09-17T16:00:41.517Z,29.30
2018-09-17T16:03:14.258Z,30.00
2018-09-17T16:05:47.619Z,30.10
2018-09-17T16:08:21.927Z,31.00
2018-09-17T16:10:55.767Z,30.50
2018-09-17T16:13:30.103Z,30.70
2018-09-17T16:16:04.543Z,31.20
2018-09-17T16:18:38.759Z,31.40
2018-09-17T16:21:12.886Z,32.00
2018-09-17T16:23:48.784Z,31.80
2018-09-17T16:26:22.072Z,31.50
2018-09-17T16:28:55.390Z,31.90
2018-09-17T16:31:29.349Z,32.20
2018-09-17T16:34:02.648Z,32.40
2018-09-17T16:36:35.881Z,32.60
2018-09-17T16:39:11.717Z,33.00
2018-09-17T16:41:45.866Z,33.20
2018-09-17T16:44:19.053Z,33.70
2018-09-17T16:46:53.113Z,33.30
2018-09-17T16:49:25.974Z,33.50
2018-09-17T16:51:59.384Z,33.90
2018-09-17T16:54:33.808Z,34.00
2018-09-17T16:57:07.314Z,34.10
2018-09-17T16:59:41.430Z,34.20
2018-09-17T17:02:15.652Z,34.20
2018-09-17T17:04:49.202Z,34.30
2018-09-17T17:07:23.845Z,34.20
2018-09-17T17:09:58.547Z,34.40
2018-09-17T17:12:32.523Z,34.50
2018-09-17T17:15:06.272Z,34.40
2018-09-17T17:17:39.846Z,34.20
2018-09-17T17:20:12.768Z,34.40
2018-09-17T17:22:46.981Z,33.00
2018-09-17T17:25:20.462Z,33.40
2018-09-17T17:27:55.211Z,34.10
2018-09-17T17:30:29.672Z,34.00
2018-09-17T17:33:03.752Z,34.00
2018-09-17T17:35:38.386Z,34.20
2018-09-17T17:38:11.460Z,34.20
2018-09-17T17:40:44.591Z,33.70
2018-09-17T17:43:17.680Z,34.00
2018-09-17T17:45:51.072Z,34.40
2018-09-17T17:48:24.654Z,33.90
2018-09-17T17:50:57.577Z,34.30
2018-09-17T17:53:31.705Z,34.20
2018-09-17T17:56:05.798Z,34.40
2018-09-17T17:58:39.604Z,33.50
2018-09-17T18:01:14.599Z,33.70
2018-09-17T18:03:47.659Z,33.80
2018-09-17T18:06:21.544Z,33.30
2018-09-17T18:08:55.339Z,33.50
2018-09-17T18:11:28.438Z,33.60
2018-09-17T18:14:01.469Z,33.80
2018-09-17T18:16:35.120Z,33.90
2018-09-17T18:19:08.084Z,33.80
2018-09-17T18:21:41.254Z,33.50
2018-09-17T18:24:14.427Z,33.30
2018-09-17T18:26:48.474Z,33.00
2018-09-17T18:29:23.217Z,33.30
2018-09-17T18:31:56.245Z,33.10
2018-09-17T18:34:29.547Z,32.90
2018-09-17T18:37:03.140Z,32.60
2018-09-17T18:39:36.481Z,32.50
2018-09-17T18:42:09.988Z,32.10
2018-09-17T18:44:43.038Z,32.00
2018-09-17T18:47:16.529Z,31.70
2018-09-17T18:49:49.321Z,32.60
2018-09-17T18:52:22.119Z,31.80
2018-09-17T18:54:57.233Z,32.00
2018-09-17T18:57:31.170Z,31.50
2018-09-17T19:00:05.364Z,31.20
2018-09-17T19:02:38.778Z,30.90
2018-09-17T19:05:12.318Z,31.40
2018-09-17T19:07:46.340Z,31.60
2018-09-17T19:10:19.725Z,31.80
2018-09-17T19:12:53.937Z,32.30
2018-09-17T19:15:31.893Z,32.90
2018-09-17T19:18:10.187Z,33.40
2018-09-17T19:20:43.302Z,32.90
2018-09-17T19:23:20.794Z,32.80
2018-09-17T19:25:55.938Z,32.90
2018-09-17T19:28:33.216Z,32.80
2018-09-17T19:31:06.091Z,32.00
2018-09-17T19:33:41.122Z,31.70
2018-09-17T19:36:14.644Z,32.60
2018-09-17T19:38:53.137Z,33.50
2018-09-17T19:41:27.531Z,34.20
2018-09-17T19:44:03.676Z,34.00
2018-09-17T19:46:38.053Z,33.30
2018-09-17T19:49:13.898Z,33.00
2018-09-17T19:51:51.029Z,31.70
2018-09-17T19:54:24.443Z,30.80
2018-09-17T19:56:59.064Z,31.30
2018-09-17T19:59:37.533Z,32.10
2018-09-17T20:02:11.494Z,31.60
2018-09-17T20:04:49.173Z,32.20
2018-09-17T20:07:22.541Z,32.00
2018-09-17T20:09:55.922Z,31.20
2018-09-17T20:12:30.420Z,31.40
2018-09-17T20:15:07.951Z,31.90
2018-09-17T20:17:42.769Z,32.50
2018-09-17T20:20:16.343Z,33.00
2018-09-17T20:22:49.445Z,32.50
2018-09-17T20:25:23.121Z,32.20
2018-09-17T20:27:57.129Z,31.40
2018-09-17T20:30:31.008Z,32.10
2018-09-17T20:33:05.005Z,32.60
2018-09-17T20:35:40.135Z,31.80
2018-09-17T20:38:13.739Z,31.50
2018-09-17T20:40:48.238Z,32.10
2018-09-17T20:43:21.884Z,32.30
2018-09-17T20:45:56.092Z,32.00
2018-09-17T20:48:30.049Z,32.30
2018-09-17T20:51:04.956Z,32.60
2018-09-17T20:53:39.758Z,31.50
2018-09-17T20:56:14.346Z,30.80
2018-09-17T20:58:49.221Z,31.10
2018-09-17T21:01:29.536Z,31.00
2018-09-17T21:04:02.399Z,30.60
2018-09-17T21:06:35.496Z,30.90
2018-09-17T21:09:11.614Z,30.50
2018-09-17T21:11:47.099Z,31.50
2018-09-17T21:14:21.767Z,32.10
2018-09-17T21:16:55.369Z,32.60
2018-09-17T21:19:31.182Z,32.80
2018-09-17T21:22:05.326Z,32.60
2018-09-17T21:24:38.789Z,32.40
2018-09-17T21:27:13.943Z,31.80
2018-09-17T21:29:47.367Z,31.90
2018-09-17T21:32:20.802Z,32.50
2018-09-17T21:34:56.562Z,32.70
2018-09-17T21:37:30.911Z,31.90
2018-09-17T21:40:03.670Z,32.30
2018-09-17T21:42:37.667Z,32.50
2018-09-17T21:45:12.233Z,32.10
2018-09-17T21:47:45.757Z,32.00
2018-09-17T21:50:19.252Z,32.50
2018-09-17T21:52:52.056Z,32.60
2018-09-17T21:55:24.981Z,32.70
2018-09-17T21:57:58.617Z,31.20
2018-09-17T22:01:02.732Z,31.70
2018-09-17T22:03:36.542Z,31.70
2018-09-17T22:06:09.288Z,31.20
2018-09-17T22:08:42.640Z,31.90
2018-09-17T22:11:16.309Z,31.50
2018-09-17T22:13:50.116Z,31.60
2018-09-17T22:16:23.230Z,31.90
2018-09-17T22:18:56.706Z,31.90
2018-09-17T22:21:30.203Z,31.20
2018-09-17T22:24:03.919Z,31.10
2018-09-17T22:26:37.510Z,30.90
2018-09-17T22:29:11.550Z,30.50
2018-09-17T22:31:44.855Z,30.70
2018-09-17T22:34:19.365Z,30.70
2018-09-17T22:36:52.778Z,30.60
2018-09-17T22:39:30.050Z,30.10
2018-09-17T22:42:03.471Z,29.80
2018-09-17T22:44:40.808Z,29.70
2018-09-17T22:47:16.371Z,29.60
2018-09-17T22:49:50.148Z,29.00
2018-09-17T22:52:23.772Z,29.10
2018-09-17T22:54:57.581Z,28.60
2018-09-17T22:57:30.849Z,28.40
2018-09-17T23:00:05.097Z,28.20
2018-09-17T23:02:38.629Z,28.00
2018-09-17T23:05:12.280Z,27.70
2018-09-17T23:07:46.783Z,27.60
2018-09-17T23:10:20.658Z,27.90
2018-09-17T23:12:54.330Z,28.20
2018-09-17T23:15:27.802Z,28.30
2018-09-17T23:18:01.825Z,28.30
2018-09-17T23:20:35.806Z,27.80
2018-09-17T23:23:08.807Z,27.80
2018-09-17T23:25:41.890Z,27.80
2018-09-17T23:28:15.628Z,27.70
2018-09-17T23:30:50.057Z,27.90
2018-09-17T23:33:23.145Z,27.70
2018-09-17T23:35:56.433Z,26.80
2018-09-17T23:38:29.780Z,26.80
2018-09-17T23:41:04.179Z,27.00
2018-09-17T23:43:37.953Z,26.90
2018-09-17T23:46:10.875Z,26.90
2018-09-17T23:48:43.867Z,26.70
2018-09-17T23:51:16.713Z,26.40
2018-09-17T23:53:49.363Z,26.50
2018-09-17T23:56:22.575Z,26.80
2018-09-17T23:58:55.675Z,27.00
